createdAt,value
2022-10-22T00:01:52.016Z,100876.44
2022-10-22T00:04:18.377Z,100879.50
2022-10-22T00:06:45.065Z,100826.44
2022-10-22T00:09:12.902Z,100834.88
2022-10-22T00:11:39.710Z,100900.00
2022-10-22T00:14:06.116Z,100829.47
2022-10-22T00:16:32.539Z,100895.09
2022-10-22T00:18:58.928Z,100843.97
2022-10-22T00:21:28.884Z,100907.78
2022-10-22T00:23:55.821Z,100844.63
2022-10-22T00:26:22.901Z,100886.22
2022-10-22T00:28:49.269Z,100890.88
2022-10-22T00:31:15.724Z,100859.41
2022-10-22T00:33:42.166Z,100901.59
2022-10-22T00:36:08.902Z,100876.38
2022-10-22T00:38:35.336Z,100905.00
2022-10-22T00:43:33.093Z,100883.63
2022-10-22T00:45:59.491Z,100855.50
2022-10-22T00:48:28.278Z,100912.88
2022-10-22T00:50:58.328Z,100914.03
2022-10-22T00:53:28.840Z,100902.53
2022-10-22T00:55:55.658Z,100903.16
2022-10-22T00:58:27.734Z,100897.97
2022-10-22T01:00:55.386Z,100898.84
2022-10-22T01:03:22.261Z,100905.06
2022-10-22T01:05:55.743Z,100899.97
2022-10-22T01:08:44.052Z,100913.16
2022-10-22T01:11:35.771Z,100896.34
2022-10-22T01:14:21.828Z,100907.28
2022-10-22T01:16:57.279Z,100914.91
2022-10-22T01:19:32.893Z,100918.75
2022-10-22T01:22:23.757Z,100903.94
2022-10-22T01:25:09.341Z,100917.84
2022-10-22T01:27:44.762Z,100908.44
2022-10-22T01:30:12.878Z,100912.38
2022-10-22T01:32:54.889Z,100908.22
2022-10-22T01:35:31.188Z,100911.84
2022-10-22T01:38:00.160Z,100903.00
2022-10-22T01:40:27.156Z,100883.44
2022-10-22T01:42:58.450Z,100914.41
2022-10-22T01:45:25.212Z,100865.66
2022-10-22T01:48:13.410Z,100912.84
2022-10-22T01:50:45.909Z,100920.06
2022-10-22T01:53:24.808Z,100919.69
2022-10-22T01:56:10.220Z,100909.50
2022-10-22T01:58:39.534Z,100905.25
2022-10-22T02:01:13.526Z,100910.66
2022-10-22T02:04:09.989Z,100905.38
2022-10-22T02:06:37.427Z,100899.25
2022-10-22T02:09:04.056Z,100868.28
2022-10-22T02:11:30.486Z,100837.97
2022-10-22T02:13:59.511Z,100903.53
2022-10-22T02:16:30.709Z,100904.75
2022-10-22T02:18:58.452Z,100852.50
2022-10-22T02:21:24.971Z,100874.97
2022-10-22T02:23:51.617Z,100869.28
2022-10-22T02:26:38.557Z,100895.84
2022-10-22T02:29:15.333Z,100844.75
2022-10-22T02:31:43.710Z,100879.47
2022-10-22T02:34:16.785Z,100892.13
2022-10-22T02:36:46.736Z,100837.81
2022-10-22T02:39:17.785Z,100860.22
2022-10-22T02:41:44.280Z,100845.28
2022-10-22T02:44:11.109Z,100882.63
2022-10-22T02:46:39.161Z,100901.28
2022-10-22T02:49:05.961Z,100852.59
2022-10-22T02:51:32.353Z,100887.53
2022-10-22T02:53:58.764Z,100891.88
2022-10-22T02:56:25.134Z,100901.56
2022-10-22T02:58:51.500Z,100909.22
2022-10-22T03:01:17.901Z,100903.91
2022-10-22T03:03:44.361Z,100893.00
2022-10-22T03:06:10.743Z,100886.72
2022-10-22T03:08:37.147Z,100914.47
2022-10-22T03:11:03.990Z,100898.56
2022-10-22T03:13:30.366Z,100903.59
2022-10-22T03:15:56.733Z,100909.06
2022-10-22T03:18:23.155Z,100863.75
2022-10-22T03:20:49.567Z,100846.06
2022-10-22T03:23:18.390Z,100897.38
2022-10-22T03:25:45.912Z,100912.31
2022-10-22T03:28:14.114Z,100905.03
2022-10-22T03:30:40.508Z,100901.91
2022-10-22T03:33:06.866Z,100916.63
2022-10-22T03:35:36.584Z,100901.28
2022-10-22T03:38:02.860Z,100921.34
2022-10-22T03:40:29.305Z,100914.88
2022-10-22T03:42:55.733Z,100900.13
2022-10-22T03:45:22.097Z,100910.19
2022-10-22T03:47:48.455Z,100922.34
2022-10-22T03:50:15.046Z,100920.81
2022-10-22T03:52:41.441Z,100882.19
2022-10-22T03:55:09.820Z,100926.28
2022-10-22T03:57:36.778Z,100893.94
2022-10-22T04:00:04.639Z,100916.59
2022-10-22T04:02:31.004Z,100892.69
2022-10-22T04:04:57.382Z,100905.44
2022-10-22T04:07:23.746Z,100882.75
2022-10-22T04:09:50.118Z,100920.91
2022-10-22T04:12:16.495Z,100887.41
2022-10-22T04:14:42.938Z,100923.81
2022-10-22T04:17:09.321Z,100924.88
2022-10-22T04:19:35.788Z,100939.16
2022-10-22T04:22:02.173Z,100939.16
2022-10-22T04:24:30.839Z,100942.22
2022-10-22T04:26:57.262Z,100869.81
2022-10-22T04:29:24.402Z,100933.22
2022-10-22T04:31:51.058Z,100939.16
2022-10-22T04:34:17.443Z,100943.56
2022-10-22T04:36:43.823Z,100935.81
2022-10-22T04:39:10.176Z,100897.03
2022-10-22T04:41:38.744Z,100955.34
2022-10-22T04:44:06.520Z,100922.91
2022-10-22T04:46:34.823Z,100950.19
2022-10-22T04:49:03.277Z,100912.66
2022-10-22T04:51:29.853Z,100939.25
2022-10-22T04:53:56.261Z,100955.34
2022-10-22T04:56:30.400Z,100958.84
2022-10-22T04:59:02.331Z,100943.19
2022-10-22T05:01:37.009Z,100962.88
2022-10-22T05:04:08.679Z,100969.97
2022-10-22T05:06:36.395Z,100952.53
2022-10-22T05:09:08.644Z,100970.72
2022-10-22T05:11:37.089Z,100968.28
2022-10-22T05:14:05.616Z,100964.44
2022-10-22T05:16:33.178Z,100968.00
2022-10-22T05:19:00.510Z,100967.38
2022-10-22T05:21:27.368Z,100928.47
2022-10-22T05:23:54.908Z,100959.28
2022-10-22T05:26:22.568Z,100962.91
2022-10-22T05:28:49.836Z,100964.50
2022-10-22T05:31:17.528Z,100960.09
2022-10-22T05:33:44.356Z,100957.03
2022-10-22T05:36:17.191Z,100975.03
2022-10-22T05:38:43.601Z,100955.94
2022-10-22T05:41:12.371Z,100949.31
2022-10-22T05:43:38.828Z,100919.72
2022-10-22T05:46:07.962Z,100980.75
2022-10-22T05:48:34.612Z,100972.66
2022-10-22T05:51:06.315Z,100974.81
2022-10-22T05:53:33.718Z,100924.91
2022-10-22T05:56:05.545Z,100985.25
2022-10-22T05:58:32.373Z,100973.03
2022-10-22T06:01:16.188Z,100989.47
2022-10-22T06:03:43.628Z,100990.25
2022-10-22T06:06:34.931Z,100995.19
2022-10-22T06:09:19.585Z,101007.16
2022-10-22T06:11:51.854Z,101006.06
2022-10-22T06:14:19.371Z,101023.31
2022-10-22T06:17:23.747Z,101018.63
2022-10-22T06:19:56.063Z,100979.66
2022-10-22T06:22:22.546Z,100943.16
2022-10-22T06:24:48.975Z,101022.53
2022-10-22T06:27:15.411Z,101019.91
2022-10-22T06:29:41.845Z,100988.13
2022-10-22T06:32:08.285Z,101030.59
2022-10-22T06:34:34.729Z,101015.22
2022-10-22T06:37:01.111Z,100978.28
2022-10-22T06:39:27.663Z,101029.63
2022-10-22T06:41:54.070Z,101002.09
2022-10-22T06:44:20.788Z,101042.56
2022-10-22T06:46:51.989Z,101005.81
2022-10-22T06:49:19.318Z,100998.81
2022-10-22T06:51:48.868Z,101036.22
2022-10-22T06:54:15.238Z,101019.81
2022-10-22T06:56:41.720Z,101073.50
2022-10-22T06:59:08.085Z,101076.13
2022-10-22T07:01:35.362Z,101050.66
2022-10-22T07:04:02.289Z,101079.47
2022-10-22T07:06:29.174Z,101078.22
2022-10-22T07:08:57.319Z,101077.66
2022-10-22T07:11:26.721Z,101090.09
2022-10-22T07:13:57.927Z,101084.53
2022-10-22T07:16:29.571Z,101085.78
2022-10-22T07:18:58.948Z,101083.56
2022-10-22T07:21:26.087Z,101062.59
2022-10-22T07:23:52.557Z,101087.16
2022-10-22T07:26:20.351Z,101077.72
2022-10-22T07:28:47.129Z,101082.38
2022-10-22T07:31:14.966Z,101088.13
2022-10-22T07:33:41.380Z,101079.06
2022-10-22T07:36:09.632Z,101102.03
2022-10-22T07:38:36.036Z,101099.28
2022-10-22T07:41:03.182Z,101046.75
2022-10-22T07:43:29.829Z,101114.22
2022-10-22T07:45:56.191Z,101108.63
2022-10-22T07:48:23.365Z,101120.31
2022-10-22T07:50:52.943Z,101108.84
2022-10-22T07:53:21.134Z,101127.00
2022-10-22T07:55:51.729Z,101095.16
2022-10-22T07:58:18.681Z,101120.00
2022-10-22T08:00:45.481Z,101121.69
2022-10-22T08:03:12.515Z,101077.50
2022-10-22T08:05:43.723Z,101150.38
2022-10-22T08:08:11.138Z,101121.50
2022-10-22T08:10:37.995Z,101148.47
2022-10-22T08:13:04.499Z,101100.19
2022-10-22T08:15:31.112Z,101144.31
2022-10-22T08:17:57.487Z,101101.88
2022-10-22T08:20:23.857Z,101140.19
2022-10-22T08:22:50.246Z,101152.59
2022-10-22T08:25:17.997Z,101156.28
2022-10-22T08:27:44.804Z,101151.78
2022-10-22T08:30:12.301Z,101170.66
2022-10-22T08:32:38.726Z,101150.50
2022-10-22T08:35:05.269Z,101161.56
2022-10-22T08:37:31.646Z,101160.91
2022-10-22T08:39:58.030Z,101173.13
2022-10-22T08:42:42.928Z,101174.06
2022-10-22T08:45:13.390Z,101180.41
2022-10-22T08:47:52.954Z,101189.13
2022-10-22T08:50:24.671Z,101162.66
2022-10-22T08:52:54.260Z,101175.91
2022-10-22T08:55:20.711Z,101197.34
2022-10-22T08:57:49.930Z,101200.22
2022-10-22T09:00:40.204Z,101195.44
2022-10-22T09:03:36.585Z,101208.06
2022-10-22T09:06:05.944Z,101208.13
2022-10-22T09:08:32.487Z,101182.13
2022-10-22T09:11:06.114Z,101210.56
2022-10-22T09:13:32.646Z,101156.75
2022-10-22T09:16:23.640Z,101198.00
2022-10-22T09:19:02.197Z,101225.91
2022-10-22T09:21:52.700Z,101230.09
2022-10-22T09:24:39.767Z,101233.22
2022-10-22T09:27:16.045Z,101237.69
2022-10-22T09:29:43.945Z,101233.50
2022-10-22T09:32:10.522Z,101242.69
2022-10-22T09:34:37.068Z,101240.63
2022-10-22T09:37:06.756Z,101239.09
2022-10-22T09:39:39.079Z,101249.78
2022-10-22T09:42:06.701Z,101225.91
2022-10-22T09:44:34.937Z,101246.66
2022-10-22T09:47:37.251Z,101229.38
2022-10-22T09:50:27.951Z,101254.97
2022-10-22T09:52:59.152Z,101259.91
2022-10-22T09:55:26.310Z,101264.84
2022-10-22T09:57:57.516Z,101254.84
2022-10-22T10:00:27.632Z,101265.69
2022-10-22T10:02:58.350Z,101271.13
2022-10-22T10:05:27.962Z,101261.72
2022-10-22T10:07:54.327Z,101242.34
2022-10-22T10:10:35.415Z,101261.47
2022-10-22T10:13:40.647Z,101293.56
2022-10-22T10:16:13.132Z,101281.41
2022-10-22T10:18:57.931Z,101290.34
2022-10-22T10:21:42.709Z,101293.56
2022-10-22T10:24:22.119Z,101273.81
2022-10-22T10:27:23.681Z,101305.16
2022-10-22T10:30:06.588Z,101308.22
2022-10-22T10:32:35.838Z,101312.34
2022-10-22T10:35:22.133Z,101289.31
2022-10-22T10:37:54.508Z,101309.38
2022-10-22T10:40:33.609Z,101285.81
2022-10-22T10:43:21.545Z,101313.56
2022-10-22T10:45:57.453Z,101309.81
2022-10-22T10:48:31.537Z,101304.56
2022-10-22T10:51:32.333Z,101305.31
2022-10-22T10:54:15.478Z,101307.94
2022-10-22T10:56:45.859Z,101292.63
2022-10-22T10:59:30.832Z,101330.47
2022-10-22T11:02:21.605Z,101334.09
2022-10-22T11:05:19.643Z,101331.88
2022-10-22T11:08:03.713Z,101313.06
2022-10-22T11:10:35.260Z,101322.97
2022-10-22T11:13:22.873Z,101319.19
2022-10-22T11:16:14.864Z,101345.47
2022-10-22T11:18:56.425Z,101333.81
2022-10-22T11:21:40.059Z,101339.03
2022-10-22T11:24:30.290Z,101327.38
2022-10-22T11:27:25.576Z,101339.53
2022-10-22T11:29:56.334Z,101336.69
2022-10-22T11:32:23.693Z,101321.59
2022-10-22T11:34:54.250Z,101349.47
2022-10-22T11:37:22.436Z,101309.59
2022-10-22T11:39:55.212Z,101332.53
2022-10-22T11:42:30.155Z,101304.88
2022-10-22T11:45:13.168Z,101350.00
2022-10-22T11:47:53.380Z,101369.97
2022-10-22T11:50:22.710Z,101360.78
2022-10-22T11:53:12.817Z,101353.94
2022-10-22T11:56:10.148Z,101351.97
2022-10-22T11:58:44.835Z,101337.25
2022-10-22T12:01:11.156Z,101349.78
2022-10-22T12:03:44.447Z,101351.78
2022-10-22T12:06:15.465Z,101359.69
2022-10-22T12:08:44.339Z,101346.31
2022-10-22T12:11:10.615Z,101353.44
2022-10-22T12:14:01.272Z,101341.91
2022-10-22T12:16:43.955Z,101353.81
2022-10-22T12:19:38.426Z,101321.63
2022-10-22T12:22:07.719Z,101359.88
2022-10-22T12:24:40.482Z,101376.81
2022-10-22T12:27:37.697Z,101365.81
2022-10-22T12:30:28.426Z,101375.72
2022-10-22T12:33:00.462Z,101374.75
2022-10-22T12:35:29.114Z,101367.28
2022-10-22T12:37:57.713Z,101356.81
2022-10-22T12:40:26.396Z,101366.84
2022-10-22T12:42:55.526Z,101369.59
2022-10-22T12:45:23.748Z,101369.19
2022-10-22T12:47:52.634Z,101377.06
2022-10-22T12:50:21.470Z,101375.41
2022-10-22T12:52:48.352Z,101307.44
2022-10-22T12:55:20.076Z,101374.44
2022-10-22T12:57:48.575Z,101342.31
2022-10-22T13:00:26.552Z,101360.31
2022-10-22T13:02:54.105Z,101373.47
2022-10-22T13:05:23.454Z,101374.28
2022-10-22T13:08:10.447Z,101358.13
2022-10-22T13:10:41.484Z,101366.19
2022-10-22T13:13:30.509Z,101376.50
2022-10-22T13:15:56.881Z,101368.19
2022-10-22T13:18:25.089Z,101366.78
2022-10-22T13:20:52.634Z,101377.50
2022-10-22T13:23:20.870Z,101377.88
2022-10-22T13:26:17.122Z,101337.63
2022-10-22T13:28:50.525Z,101351.56
2022-10-22T13:31:23.956Z,101375.22
2022-10-22T13:34:03.698Z,101388.16
2022-10-22T13:36:34.347Z,101361.84
2022-10-22T13:39:00.835Z,101388.38
2022-10-22T13:41:30.964Z,101377.03
2022-10-22T13:43:57.461Z,101337.06
2022-10-22T13:46:25.147Z,101351.81
2022-10-22T13:48:53.987Z,101382.16
2022-10-22T13:51:22.862Z,101375.69
2022-10-22T13:53:50.408Z,101375.09
2022-10-22T13:56:18.471Z,101338.13
2022-10-22T13:58:46.333Z,101361.97
2022-10-22T14:01:18.671Z,101379.94
2022-10-22T14:03:45.665Z,101380.16
2022-10-22T14:06:14.052Z,101381.25
2022-10-22T14:08:40.523Z,101361.44
2022-10-22T14:11:10.111Z,101395.50
2022-10-22T14:13:36.436Z,101386.59
2022-10-22T14:16:05.479Z,101378.22
2022-10-22T14:18:33.040Z,101376.13
2022-10-22T14:21:04.720Z,101373.38
2022-10-22T14:23:32.270Z,101382.88
2022-10-22T14:25:59.895Z,101378.28
2022-10-22T14:28:26.468Z,101383.59
2022-10-22T14:30:53.968Z,101379.91
2022-10-22T14:33:29.043Z,101380.94
2022-10-22T14:35:59.575Z,101399.44
2022-10-22T14:38:26.125Z,101375.22
2022-10-22T14:40:52.511Z,101376.19
2022-10-22T14:43:22.703Z,101405.78
2022-10-22T14:45:49.305Z,101399.91
2022-10-22T14:48:16.142Z,101359.31
2022-10-22T14:50:43.992Z,101415.44
2022-10-22T14:53:11.153Z,101409.28
2022-10-22T14:55:37.547Z,101391.22
2022-10-22T14:58:03.935Z,101400.16
2022-10-22T15:00:30.445Z,101403.09
2022-10-22T15:02:59.648Z,101432.78
2022-10-22T15:05:28.110Z,101432.25
2022-10-22T15:07:54.520Z,101415.06
2022-10-22T15:10:21.021Z,101423.78
2022-10-22T15:12:47.376Z,101423.00
2022-10-22T15:15:13.736Z,101401.72
2022-10-22T15:17:40.462Z,101423.06
2022-10-22T15:20:07.371Z,101426.44
2022-10-22T15:22:35.284Z,101373.31
2022-10-22T15:25:04.338Z,101441.41
2022-10-22T15:27:30.985Z,101401.31
2022-10-22T15:29:58.995Z,101436.28
2022-10-22T15:32:26.557Z,101438.25
2022-10-22T15:34:54.377Z,101447.53
2022-10-22T15:37:21.209Z,101443.25
2022-10-22T15:39:47.682Z,101424.91
2022-10-22T15:42:14.515Z,101447.38
2022-10-22T15:44:41.079Z,101461.00
2022-10-22T15:47:07.928Z,101452.53
2022-10-22T15:49:36.748Z,101458.34
2022-10-22T15:52:04.471Z,101456.34
2022-10-22T15:54:31.071Z,101462.38
2022-10-22T15:56:59.756Z,101445.56
2022-10-22T15:59:26.144Z,101433.41
2022-10-22T16:01:52.558Z,101450.19
2022-10-22T16:04:19.123Z,101449.09
2022-10-22T16:06:47.637Z,101454.09
2022-10-22T16:09:17.111Z,101461.47
2022-10-22T16:11:43.800Z,101457.16
2022-10-22T16:14:15.269Z,101458.47
2022-10-22T16:16:46.426Z,101456.78
2022-10-22T16:19:13.977Z,101469.91
2022-10-22T16:21:40.392Z,101432.53
2022-10-22T16:24:08.018Z,101443.41
2022-10-22T16:26:35.219Z,101462.16
2022-10-22T16:29:01.891Z,101466.31
2022-10-22T16:31:28.306Z,101461.56
2022-10-22T16:33:55.369Z,101463.31
2022-10-22T16:36:22.485Z,101478.28
2022-10-22T16:38:49.052Z,101484.63
2022-10-22T16:41:17.583Z,101482.31
2022-10-22T16:43:46.889Z,101480.53
2022-10-22T16:46:13.347Z,101466.50
2022-10-22T16:48:41.988Z,101464.81
2022-10-22T16:51:10.342Z,101496.44
2022-10-22T16:53:36.946Z,101471.38
2022-10-22T16:56:03.483Z,101413.84
2022-10-22T16:58:29.918Z,101473.00
2022-10-22T17:00:56.347Z,101489.13
2022-10-22T17:03:24.613Z,101472.91
2022-10-22T17:05:53.944Z,101483.19
2022-10-22T17:08:20.334Z,101460.63
2022-10-22T17:10:46.841Z,101423.56
2022-10-22T17:13:13.209Z,101429.47
2022-10-22T17:15:40.388Z,101461.31
2022-10-22T17:18:06.781Z,101457.97
2022-10-22T17:20:33.165Z,101441.78
2022-10-22T17:22:59.510Z,101458.97
2022-10-22T17:25:37.017Z,101489.50
2022-10-22T17:28:03.415Z,101472.78
2022-10-22T17:30:30.345Z,101475.31
2022-10-22T17:32:56.759Z,101453.53
2022-10-22T17:35:23.196Z,101448.56
2022-10-22T17:37:49.588Z,101457.53
2022-10-22T17:40:15.956Z,101470.56
2022-10-22T17:42:42.620Z,101493.69
2022-10-22T17:45:09.473Z,101471.66
2022-10-22T17:47:36.298Z,101522.31
2022-10-22T17:50:02.670Z,101500.84
2022-10-22T17:52:29.022Z,101474.16
2022-10-22T17:54:55.381Z,101457.38
2022-10-22T17:57:23.037Z,101457.78
2022-10-22T17:59:49.400Z,101459.75
2022-10-22T18:02:17.726Z,101488.34
2022-10-22T18:04:44.269Z,101465.47
2022-10-22T18:07:10.773Z,101503.53
2022-10-22T18:09:37.348Z,101537.41
2022-10-22T18:12:03.805Z,101468.00
2022-10-22T18:14:30.269Z,101498.09
2022-10-22T18:16:56.687Z,101515.84
2022-10-22T18:19:24.420Z,101511.09
2022-10-22T18:21:50.816Z,101514.53
2022-10-22T18:24:17.640Z,101497.72
2022-10-22T18:26:44.313Z,101539.56
2022-10-22T18:29:14.860Z,101528.22
2022-10-22T18:31:41.372Z,101503.97
2022-10-22T18:34:07.818Z,101500.25
2022-10-22T18:36:34.292Z,101535.69
2022-10-22T18:39:01.891Z,101523.81
2022-10-22T18:41:30.021Z,101497.31
2022-10-22T18:43:58.871Z,101526.78
2022-10-22T18:46:26.292Z,101531.31
2022-10-22T18:48:53.868Z,101482.19
2022-10-22T18:51:20.714Z,101504.66
2022-10-22T18:53:59.199Z,101534.63
2022-10-22T18:56:36.696Z,101519.50
2022-10-22T18:59:03.090Z,101508.63
2022-10-22T19:01:29.566Z,101510.94
2022-10-22T19:03:56.766Z,101505.19
2022-10-22T19:06:33.325Z,101497.41
2022-10-22T19:09:04.094Z,101533.72
2022-10-22T19:11:30.650Z,101461.59
2022-10-22T19:13:57.102Z,101495.28
2022-10-22T19:16:23.959Z,101465.66
2022-10-22T19:18:51.922Z,101486.50
2022-10-22T19:21:18.590Z,101476.75
2022-10-22T19:26:18.189Z,101502.66
2022-10-22T19:28:45.267Z,101525.44
2022-10-22T19:31:17.321Z,101504.47
2022-10-22T19:33:43.741Z,101502.16
2022-10-22T19:36:12.492Z,101426.31
2022-10-22T19:38:40.944Z,101517.13
2022-10-22T19:41:08.645Z,101519.75
2022-10-22T19:43:35.012Z,101457.91
2022-10-22T19:46:01.684Z,101494.34
2022-10-22T19:48:29.669Z,101494.38
2022-10-22T19:51:02.612Z,101526.25
2022-10-22T19:53:30.492Z,101518.28
2022-10-22T19:55:58.559Z,101524.16
2022-10-22T19:58:25.367Z,101485.06
2022-10-22T20:00:51.907Z,101475.63
2022-10-22T20:03:19.965Z,101511.78
2022-10-22T20:05:47.452Z,101472.72
2022-10-22T20:08:13.989Z,101509.38
2022-10-22T20:10:40.362Z,101473.19
2022-10-22T20:13:06.727Z,101527.44
2022-10-22T20:15:33.161Z,101502.31
2022-10-22T20:17:59.906Z,101524.31
2022-10-22T20:20:26.728Z,101499.44
2022-10-22T20:22:54.063Z,101506.28
2022-10-22T20:25:20.429Z,101481.31
2022-10-22T20:27:46.795Z,101524.31
2022-10-22T20:30:14.002Z,101531.16
2022-10-22T20:32:40.905Z,101515.19
2022-10-22T20:35:07.745Z,101542.91
2022-10-22T20:37:34.379Z,101511.59
2022-10-22T20:40:00.758Z,101520.06
2022-10-22T20:42:27.226Z,101521.06
2022-10-22T20:44:56.139Z,101464.41
2022-10-22T20:47:44.700Z,101447.97
2022-10-22T20:50:31.416Z,101468.13
2022-10-22T20:52:58.358Z,101485.69
2022-10-22T20:55:27.050Z,101542.38
2022-10-22T21:10:37.401Z,101395.69
2022-10-22T21:24:38.846Z,101486.38
2022-10-22T21:43:05.890Z,101439.66
2022-10-22T23:07:52.890Z,101393.59
2022-10-22T23:16:46.657Z,101390.84
2022-10-22T23:19:26.932Z,101382.22
2022-10-22T23:22:25.003Z,101449.28
2022-10-22T23:25:52.369Z,101397.84
2022-10-22T23:32:00.525Z,101372.78
2022-10-22T23:34:32.997Z,101446.66
2022-10-22T23:37:05.217Z,101415.41
2022-10-22T23:39:37.250Z,101489.47
2022-10-22T23:42:10.637Z,101371.81
2022-10-22T23:47:35.169Z,101419.19
2022-10-22T23:50:37.311Z,101369.72
2022-10-22T23:53:17.012Z,101357.19
2022-10-22T23:55:52.827Z,101347.75
2022-10-22T23:58:51.572Z,101361.09
